Flight Track Log - Related Links

Times and Time Zones

All times are in EST time to prevent confusion due to time zone crossing. See the DAL3643 flight status page for this flight to view local times or setup timezone preferences in your user account.

Time Position Orientation Groundspeed Altitude Reporting Facility
EST Latitude Longitude Course Direction KTS MPH feet Rate Location/Type
Mon 03:43:10 PM 41.8264 -87.7642 78° East 173 199 2,700  Level Chicago Center
Mon 03:44:12 PM 41.8186 -87.6842 97° East 227 261 3,100 1,645 Climbing Chicago Center
Mon 03:45:14 PM 41.8017 -87.5889 103° East 244 281 6,100 2,806 Climbing Chicago Center
Mon 03:46:16 PM 41.7939 -87.4778 95° East 292 336 8,900 2,613 Climbing Chicago Center
Mon 03:47:18 PM 41.7853 -87.3631 96° East 308 354 11,500 2,244 Climbing Chicago Center
Mon 03:48:00 PM 41.8691 -87.0198 78° East  Level Estimated
Mon 03:48:19 PM 41.7764 -87.2408 96° East 326 375 13,500  Level Chicago Center
Mon 03:49:21 PM 41.7644 -87.1008 96° East 377 434 14,900 1,597 Climbing Chicago Center
Mon 03:50:23 PM 41.7631 -86.9522 91° East 398 458 16,800 1,805 Climbing Chicago Center
Mon 03:51:24 PM 41.7653 -86.7700 89° East 408 470 18,600 1,561 Climbing Chicago Center
Mon 03:52:26 PM 41.7669 -86.6231 89° East 421 484 20,000 1,161 Climbing Chicago Center
Mon 03:53:28 PM 41.7678 -86.4628 90° East 429 494 21,000 484 Climbing Chicago Center
Mon 03:54:30 PM 41.7744 -86.2931 87° East 457 526 21,000  Level Chicago Center
Mon 03:55:31 PM 41.8067 -86.1258 75° East 465 535 21,000  Level Chicago Center
Mon 03:56:33 PM 41.8456 -85.9256 75° East 462 532 21,000 -484 Level Chicago Center
Mon 03:57:35 PM 41.8783 -85.7569 75° East 464 534 20,000 -927 Descending Chicago Center
Mon 03:58:36 PM 41.9106 -85.5903 75° East 460 529 19,100 -488 Descending Chicago Center
Mon 03:59:38 PM 41.9397 -85.4314 76° East 438 504 19,000 -48 Descending Chicago Center
Mon 04:00:40 PM 41.9675 -85.2853 76° East 411 473 19,000  Level Chicago Center
Mon 04:01:42 PM 41.9964 -85.1297 76° East 403 464 19,000  Level Chicago Center
Mon 04:02:43 PM 42.0231 -84.9817 76° East 407 468 19,000 -390 Level Chicago Center
Mon 04:03:45 PM 42.0508 -84.8344 76° East 408 470 18,200 -774 Descending Chicago Center
Mon 04:04:47 PM 42.0311 -84.7044 102° East 370 426 17,400 -919 Descending Chicago Center
Mon 04:05:49 PM 41.9756 -84.5908 123° Southeast 363 418 16,300 -1,210 Descending Chicago Center
Mon 04:06:51 PM 41.9336 -84.4297 109° East 390 449 14,900 -1,266 Descending Chicago Center
Mon 04:07:38 PM 41.9039 -84.3225 110° East 386 444 14,000 -1,233 Descending Cleveland Center
Mon 04:08:04 PM 41.8872 -84.2622 110° East 379 436 13,400 -968 Descending Cleveland Center
Mon 04:08:40 PM 41.8725 -84.2094 111° Southeast 378 435 13,000 -1,180 Descending Cleveland Center
Mon 04:09:05 PM 41.8519 -84.1361 111° Southeast 371 427 12,200 -871 Descending Cleveland Center
Mon 04:09:42 PM 41.8347 -84.0556 106° East 368 423 12,100 -197 Descending Cleveland Center
Mon 04:10:06 PM 41.8483 -84.0039 71° East 376 433 12,000  Descending Cleveland Center
Mon 04:10:44 PM 41.8861 -83.9356 53° Northeast 378 435 12,100  Climbing Cleveland Center
Mon 04:11:07 PM 41.9183 -83.8936 44° Northeast 365 420 12,000 -97 Descending Cleveland Center
Mon 04:11:46 PM 41.9564 -83.8417 45° Northeast 361 415 12,000  Level Cleveland Center
Mon 04:12:08 PM 41.9867 -83.8028 44° Northeast 333 383 12,000 97 Level Cleveland Center
Mon 04:12:48 PM 42.0211 -83.7567 45° Northeast 332 382 12,100  Climbing Cleveland Center
Mon 04:13:09 PM 42.0503 -83.7192 44° Northeast 319 367 12,000  Descending Cleveland Center
Mon 04:13:50 PM 42.0836 -83.6717 47° Northeast 320 368 12,100  Climbing Cleveland Center
Mon 04:14:10 PM 42.1000 -83.6222 66° East 310 357 12,000  Descending Cleveland Center
Mon 04:14:52 PM 42.1064 -83.5553 83° East 292 336 12,100  Climbing Cleveland Center
Mon 04:15:11 PM 42.1108 -83.5114 82° East 283 326 12,000  Descending Cleveland Center
Mon 04:15:54 PM 42.1186 -83.4489 80° East 283 326 12,100  Climbing Cleveland Center
Mon 04:16:13 PM 42.1233 -83.4061 82° East 279 321 12,000 -381 Descending Cleveland Center
Mon 04:16:57 PM 42.1453 -83.3533 61° Northeast 286 329 11,700 -818 Descending Cleveland Center
Mon 04:17:19 PM 42.1664 -83.3108 56° Northeast 262 302 11,100 -677 Descending Cleveland Center
Mon 04:17:59 PM 42.1872 -83.2697 56° Northeast 271 312 11,000 -764 Descending Cleveland Center
Mon 04:18:14 PM 42.2078 -83.2378 49° Northeast 271 312 10,400 -968 Descending Cleveland Center
Mon 04:19:01 PM 42.2525 -83.2033 30° Northeast 239 275 10,000 -716 Descending Cleveland Center
Mon 04:19:21 PM 42.2722 -83.1903 26° Northeast 224 258 9,600 -1,065 Descending Cleveland Center
Mon 04:20:03 PM 42.3081 -83.1644 28° Northeast 228 262 8,900 -1,200 Descending Cleveland Center
Mon 04:20:16 PM 42.3231 -83.1550 25° Northeast 225 259 8,500 -774 Descending Cleveland Center
Mon 04:21:05 PM 42.3611 -83.1278 28° Northeast 220 253 8,100 -492 Descending Cleveland Center
Mon 04:21:17 PM 42.3739 -83.1197 25° Northeast 205 236 8,000  Descending Cleveland Center
Mon 04:22:07 PM 42.4103 -83.0914 30° Northeast 208 239 8,100  Climbing Cleveland Center
Mon 04:22:18 PM 42.4236 -83.0700 50° Northeast 222 255 8,000  Descending Cleveland Center
Mon 04:23:09 PM 42.4508 -83.0306 47° Northeast 219 252 8,100  Climbing Cleveland Center
Mon 04:23:25 PM 42.4683 -83.0053 47° Northeast 213 245 8,000  Descending Cleveland Center
Mon 04:24:11 PM 42.4953 -83.0028 North 211 243 8,100 -492 Climbing Cleveland Center
Mon 04:24:26 PM 42.5086 -83.0278 306° West 157 181 7,500 -968 Descending Cleveland Center
Mon 04:25:13 PM 42.5314 -83.0622 312° West 176 203 7,100 -492 Descending Cleveland Center
Mon 04:25:27 PM 42.5317 -83.0819 271° West 171 197 7,000 -484 Descending Cleveland Center
Mon 04:26:15 PM 42.5142 -83.1167 236° Southwest 169 194 6,600 -787 Descending Cleveland Center
Mon 04:26:28 PM 42.4992 -83.1256 204° Southwest 170 196 6,200 -484 Descending Cleveland Center
Mon 04:27:17 PM 42.4725 -83.1464 210° Southwest 169 194 6,100 -179 Descending Cleveland Center
Mon 04:27:35 PM 42.4544 -83.1619 212° Southwest 165 190 6,000 -98 Descending Cleveland Center
Mon 04:28:18 PM 42.4325 -83.1758 205° Southwest 164 189 6,000 -492 Level Cleveland Center
Mon 04:28:36 PM 42.4144 -83.1903 211° Southwest 165 190 5,500 -968 Descending Cleveland Center
Mon 04:29:20 PM 42.3922 -83.2075 210° Southwest 166 191 5,000 -1,082 Descending Cleveland Center
Mon 04:29:37 PM 42.3725 -83.2211 207° Southwest 168 193 4,400 -968 Descending Cleveland Center
Mon 04:30:22 PM 42.3514 -83.2367 209° Southwest 167 192 4,000 -982 Descending Cleveland Center
Mon 04:30:32 PM 42.3347 -83.2497 210° Southwest 167 192 3,500 -1,161 Descending Cleveland Center
Mon 04:31:24 PM 42.3028 -83.2722 208° Southwest 165 190 2,800 -985 Descending Cleveland Center
Mon 04:31:39 PM 42.2903 -83.2803 205° Southwest 151 174 2,400 -871 Descending Cleveland Center
Mon 04:32:26 PM 42.2681 -83.2994 213° Southwest 153 176 1,900 -787 Descending Cleveland Center
Mon 04:32:40 PM 42.2592 -83.3042 201° Southwest 134 154 1,600 -677 Descending Cleveland Center
Mon 04:33:28 PM 42.2356 -83.3225 210° Southwest 140 161 1,200 -787 Descending Cleveland Center
Mon 04:33:41 PM 42.2256 -83.3303 210° Southwest 129 148 800 -194 Descending Cleveland Center
Mon 04:34:30 PM 42.2033 -83.3458 207° Southwest 138 159 1,000 245 Climbing Cleveland Center

Login

Don't have an account? Register now (free) for customized features, flight alerts, and more!